Inspiration — C6FM5 — position and weather

sailwx.info

Track history (hours):
 
Tides and Currents Weather Stations Pressure Air Temp Water Temp Dewpoint Dewpoint Depression Visibility Wind Speed Wind Dir Waves Ship Positions

Inspiration

Operator: Carnival Cruise Lines

Last reported at 2019-Jul-20 00:58 UTC. Time now 2019-Jul-20 01:04 UTC.
Position N 33°45' W 118°11'.

Type: Ship. MMSI: 309484000.

Date/timePositionNaut miles runAvg speedWind from/ knotsBaromVisibWave heightAir tempDewpointWater temp
2019-Jul-20 00:58N 33°45' W 118°11'0 0.0
2019-Jul-20 00:28N 33°45' W 118°11'0 0.0
2019-Jul-19 23:58N 33°45' W 118°11'0 0.0
2019-Jul-19 23:28N 33°45' W 118°11'0 0.0
2019-Jul-19 22:58N 33°45' W 118°11'0 0.0
2019-Jul-19 22:28N 33°45' W 118°11'0 0.0
2019-Jul-19 21:58N 33°45' W 118°11'0 0.0
2019-Jul-19 21:28N 33°45' W 118°11'0 0.0
2019-Jul-19 20:58N 33°45' W 118°11'0 0.0
2019-Jul-19 20:25N 33°45' W 118°11'0 0.0
2019-Jul-19 19:58N 33°45' W 118°11'0 0.0
2019-Jul-19 19:28N 33°45' W 118°11'0 0.0
2019-Jul-19 18:52N 33°45' W 118°11'0 0.0
2019-Jul-19 18:28N 33°45' W 118°11'0 0.0
2019-Jul-19 17:52N 33°45' W 118°11'0 0.0
2019-Jul-19 17:22N 33°45' W 118°11'0 0.0
2019-Jul-19 16:55N 33°45' W 118°11'0 0.0
2019-Jul-19 16:28N 33°45' W 118°11'0 0.0
2019-Jul-19 15:58N 33°45' W 118°11'0 0.0
2019-Jul-19 15:22N 33°45' W 118°11'0 0.0
2019-Jul-19 14:58N 33°45' W 118°11'0 0.0
2019-Jul-19 14:28N 33°45' W 118°11'0 0.0
2019-Jul-19 13:58N 33°45' W 118°11'0 0.0
2019-Jul-19 13:28N 33°45' W 118°11'0 0.0
2019-Jul-19 13:01N 33°45' W 118°11'0 0.5
2019-Jul-19 12:31N 33°45' W 118°11'1 3.0
2019-Jul-19 12:01N 33°43' W 118°11'5 9.2
2019-Jul-19 11:30N 33°39' W 118°10'3 6.8
2019-Jul-19 11:01N 33°35' W 118°10'4 7.4
2019-Jul-19 10:30N 33°32' W 118°08'4 7.2
2019-Jul-19 10:00N 33°29' W 118°07'3 7.1
2019-Jul-19 09:31N 33°25' W 118°05'4 7.1
2019-Jul-19 09:00N 33°22' W 118°04'4 7.8
2019-Jul-19 08:30N 33°18' W 118°02'4 7.9
2019-Jul-19 08:00N 33°14' W 118°01'4 7.2
2019-Jul-19 07:31N 33°11' W 117°59'4 7.6
2019-Jul-19 07:00N 33°07' W 117°58'4 7.7
2019-Jul-19 06:31N 33°04' W 117°56'3 6.8
2019-Jul-19 06:01N 33°01' W 117°55'9529.2
2019-Jul-19 06:00N 32°54' W 117°48'611.7 270 / 71017.2 18.014.819.0
2019-Jul-19 05:30N 32°58' W 117°53'3 6.7
2019-Jul-19 05:01N 32°55' W 117°52'4 8.2
2019-Jul-19 04:30N 32°51' W 117°51'5 9.1
2019-Jul-19 04:01N 32°46' W 117°50'4 8.9
2019-Jul-19 03:31N 32°42' W 117°47'4 8.7
2019-Jul-19 03:00N 32°38' W 117°45'4 8.8
2019-Jul-19 02:30N 32°34' W 117°43'4 8.7
2019-Jul-19 02:01N 32°30' W 117°42'4 8.5
2019-Jul-19 01:31N 32°26' W 117°40'4 8.5
2019-Jul-19 01:00N 32°22' W 117°39'4 8.5
2019-Jul-19 00:30N 32°18' W 117°37'4 8.3
2019-Jul-19 00:01N 32°15' W 117°33'4 8.2
2019-Jul-18 23:30N 32°12' W 117°30'4 8.4
2019-Jul-18 23:01N 32°09' W 117°27'4 8.8
2019-Jul-18 22:31N 32°05' W 117°23'4 8.8
2019-Jul-18 22:01N 32°02' W 117°20'3156.7
2019-Jul-18 22:00N 32°00' W 117°18'2 3.6 300 / 151018.210.8 19.015.919.0
2019-Jul-18 21:30N 31°59' W 117°16'6 7.7
2019-Jul-18 20:44N 31°54' W 117°12'4 7.6
2019-Jul-18 20:11N 31°51' W 117°16'2 8.9
2019-Jul-18 20:00N 31°51' W 117°18'4 8.6
2019-Jul-18 19:29N 31°51' W 117°23'4 8.5
2019-Jul-18 19:00N 31°50' W 117°28'5 8.5
2019-Jul-18 18:25N 31°49' W 117°34'3 8.5
2019-Jul-18 18:00N 31°49' W 117°38'2137.4
2019-Jul-18 18:00N 31°48' W 117°36'612.2 310 / 151018.310.8 18.014.819.0
2019-Jul-18 17:31N 31°49' W 117°43'4 8.6
2019-Jul-18 17:01N 31°48' W 117°48'4 8.6
2019-Jul-18 16:31N 31°48' W 117°53'4 8.4
2019-Jul-18 16:00N 31°47' W 117°58'4 8.6
2019-Jul-18 15:31N 31°47' W 118°03'4 8.0
2019-Jul-18 15:01N 31°44' W 118°07'4 8.4
2019-Jul-18 14:31N 31°40' W 118°05'4 8.6
2019-Jul-18 14:00N 31°37' W 118°02'4 8.6
2019-Jul-18 13:31N 31°33' W 117°59'4 8.3
2019-Jul-18 13:01N 31°30' W 117°56'4 8.4
2019-Jul-18 12:30N 31°26' W 117°54'4 8.1
2019-Jul-18 12:00N 31°23' W 117°50'4 7.9
2019-Jul-18 11:29N 31°24' W 117°46'4 7.8
2019-Jul-18 11:01N 31°27' W 117°45'4 8.6
2019-Jul-18 10:30N 31°31' W 117°48'4 8.7
2019-Jul-18 10:01N 31°34' W 117°51'5300.4
2019-Jul-18 10:00N 31°30' W 117°48'919.2 320 / 101018.210.8 16.012.718.0
2019-Jul-18 09:30N 31°38' W 117°54'4 8.4
2019-Jul-18 09:01N 31°42' W 117°56'4 8.2
2019-Jul-18 08:31N 31°45' W 117°53'5 9.0
2019-Jul-18 08:01N 31°45' W 117°48'5 8.9
2019-Jul-18 07:29N 31°46' W 117°42'11 8.9
2019-Jul-18 06:17N 31°47' W 117°30'4 9.0
2019-Jul-18 05:50N 31°47' W 117°25'3 8.9
2019-Jul-18 05:30N 31°47' W 117°21'6 8.6
2019-Jul-18 04:48N 31°48' W 117°14'2 2.5
2019-Jul-18 04:00N 31°48' W 117°12'17 1.1 270 / 101017.2 18.014.819.0
2019-Jul-17 12:13N 31°55' W 116°54'2 8.1
2019-Jul-17 12:00N 31°56' W 116°56'4 8.3
2019-Jul-17 11:30N 31°57' W 117°00'4 8.6
2019-Jul-17 11:00N 31°59' W 117°05'5 8.4
2019-Jul-17 10:28N 32°01' W 117°10'4 8.4
2019-Jul-17 10:00N 32°02' W 117°14'5 9.0
2019-Jul-17 09:30N 32°04' W 117°19'5 9.1
2019-Jul-17 09:00N 32°06' W 117°24'4 9.0
2019-Jul-17 08:30N 32°07' W 117°29'4 9.0
2019-Jul-17 08:00N 32°10' W 117°33'5378.3
2019-Jul-17 08:00N 32°06' W 117°30'918.7 280 / 51018.210.8 16.012.719.0
2019-Jul-17 07:30N 32°14' W 117°36'5 8.8
2019-Jul-17 06:56N 32°18' W 117°38'4 9.4
2019-Jul-17 06:30N 32°22' W 117°40'5 9.4
2019-Jul-17 06:00N 32°26' W 117°43'5 9.7
2019-Jul-17 05:30N 32°30' W 117°46'5 9.6
2019-Jul-17 05:00N 32°35' W 117°48'5 9.7
2019-Jul-17 04:30N 32°39' W 117°51'5 9.9
2019-Jul-17 04:00N 32°43' W 117°53'5 9.7
2019-Jul-17 03:30N 32°48' W 117°56'5 9.5
2019-Jul-17 03:00N 32°52' W 117°58'5 9.3
2019-Jul-17 02:30N 32°56' W 118°01'5 9.6
2019-Jul-17 02:00N 33°00' W 118°03'5 9.4
2019-Jul-17 01:30N 33°05' W 118°06'5 9.6
2019-Jul-17 01:01N 33°09' W 118°09'5 9.8
2019-Jul-17 00:30N 33°13' W 118°11'510.3
2019-Jul-17 00:00N 33°18' W 118°14'5 9.3
2019-Jul-16 23:30N 33°21' W 118°19'0 0.4
2019-Jul-16 22:49N 33°21' W 118°19'0 0.0
2019-Jul-16 22:22N 33°21' W 118°19'0 0.0
2019-Jul-16 21:37N 33°21' W 118°19'0 0.0
2019-Jul-16 21:19N 33°21' W 118°19'0 0.0
2019-Jul-16 20:55N 33°21' W 118°19'0 0.0
2019-Jul-16 20:16N 33°21' W 118°19'0 0.0
2019-Jul-16 19:52N 33°21' W 118°19'0 0.1
2019-Jul-16 19:25N 33°21' W 118°19'0 0.0
2019-Jul-16 18:55N 33°21' W 118°19'0 0.0
2019-Jul-16 18:22N 33°21' W 118°19'0 0.0
2019-Jul-16 17:52N 33°21' W 118°19'0 0.0
2019-Jul-16 17:25N 33°21' W 118°19'0 0.0
2019-Jul-16 16:52N 33°21' W 118°19'0 0.0
2019-Jul-16 16:28N 33°21' W 118°19'0 0.0
2019-Jul-16 15:49N 33°21' W 118°19'0 0.0
2019-Jul-16 15:07N 33°21' W 118°19'0 0.0
2019-Jul-16 14:55N 33°21' W 118°19'0 0.0
2019-Jul-16 14:25N 33°21' W 118°19'0 0.1
2019-Jul-16 14:00N 33°21' W 118°19'3 6.2
2019-Jul-16 13:28N 33°18' W 118°16'4 8.3
2019-Jul-16 13:01N 33°15' W 118°15'4 8.2
2019-Jul-16 12:30N 33°11' W 118°14'4 7.9
2019-Jul-16 12:00N 33°07' W 118°13'4 7.7
2019-Jul-16 11:30N 33°03' W 118°11'4 8.2
2019-Jul-16 11:00N 33°01' W 118°07'4 8.8
2019-Jul-16 10:30N 32°57' W 118°04'4 8.8
2019-Jul-16 10:00N 32°53' W 118°03'4 8.9
2019-Jul-16 09:30N 32°49' W 118°01'4 8.4
2019-Jul-16 09:00N 32°45' W 117°59'4 8.0
2019-Jul-16 08:30N 32°45' W 117°54'4 7.5
2019-Jul-16 08:00N 32°48' W 117°52'4 8.5
2019-Jul-16 07:30N 32°52' W 117°54'4 8.5
2019-Jul-16 07:00N 32°56' W 117°55'4 8.7
2019-Jul-16 06:31N 33°00' W 117°57'5 9.0
2019-Jul-16 06:00N 33°04' W 117°59'4 8.9
2019-Jul-16 05:30N 33°09' W 118°01'5 9.2
2019-Jul-16 05:00N 33°13' W 118°03'5 9.7
2019-Jul-16 04:30N 33°17' W 118°05'5 9.7
2019-Jul-16 04:00N 33°22' W 118°07'12711.1
2019-Jul-16 04:00N 33°12' W 118°00'1633.7 180 / 81018.3 5.4 18.014.819.0
2019-Jul-16 03:30N 33°26' W 118°09'5 9.5
2019-Jul-16 03:01N 33°31' W 118°11'5 9.7
2019-Jul-16 02:30N 33°35' W 118°13'5 9.5
2019-Jul-16 02:01N 33°40' W 118°12'4 8.7
2019-Jul-16 01:31N 33°44' W 118°11'1 1.5
2019-Jul-16 00:58N 33°45' W 118°11'0 0.0
2019-Jul-16 00:28N 33°45' W 118°11'0 0.0
2019-Jul-15 23:58N 33°45' W 118°11'0 0.0
2019-Jul-15 23:28N 33°45' W 118°11'0 0.0
2019-Jul-15 22:58N 33°45' W 118°11'0 0.0
2019-Jul-15 22:22N 33°45' W 118°11'0 0.0
2019-Jul-15 21:58N 33°45' W 118°11'0 0.0
2019-Jul-15 21:28N 33°45' W 118°11'0 0.0
2019-Jul-15 20:58N 33°45' W 118°11'0 0.0
2019-Jul-15 20:28N 33°45' W 118°11'0 0.0
2019-Jul-15 19:58N 33°45' W 118°11'0 0.0
2019-Jul-15 19:28N 33°45' W 118°11'0 0.0
2019-Jul-15 18:58N 33°45' W 118°11'0 0.0
2019-Jul-15 18:28N 33°45' W 118°11'0 0.0
2019-Jul-15 17:58N 33°45' W 118°11'0 0.0
2019-Jul-15 17:25N 33°45' W 118°11'0 0.0
2019-Jul-15 16:58N 33°45' W 118°11'0 0.0
2019-Jul-15 16:25N 33°45' W 118°11'0 0.0
2019-Jul-15 15:55N 33°45' W 118°11'0 0.0
2019-Jul-15 15:28N 33°45' W 118°11'0 0.0
2019-Jul-15 14:58N 33°45' W 118°11'0 0.0
2019-Jul-15 14:28N 33°45' W 118°11'0 0.0
2019-Jul-15 13:55N 33°45' W 118°11'0 0.0
2019-Jul-15 13:28N 33°45' W 118°11'0 0.0
2019-Jul-15 13:00N 33°45' W 118°11'0 0.4
2019-Jul-15 12:31N 33°45' W 118°11'1 2.2
2019-Jul-15 12:01N 33°44' W 118°11'5 9.7
2019-Jul-15 11:30N 33°39' W 118°10'5 9.7
2019-Jul-15 11:00N 33°34' W 118°09'510.0
2019-Jul-15 10:31N 33°30' W 118°07'610.7
2019-Jul-15 10:00N 33°24' W 118°05'510.8
2019-Jul-15 09:30N 33°19' W 118°03'5 9.6
2019-Jul-15 09:00N 33°15' W 118°01'510.9
2019-Jul-15 08:30N 33°10' W 117°59'510.9
2019-Jul-15 08:01N 33°05' W 117°57'510.8
2019-Jul-15 07:30N 32°60' W 117°54'612.4
2019-Jul-15 07:00N 32°54' W 117°52'816.5
2019-Jul-15 06:30N 32°46' W 117°49'918.1
2019-Jul-15 06:00N 32°37' W 117°45'918.1
2019-Jul-15 05:30N 32°29' W 117°40'917.9
2019-Jul-15 05:00N 32°21' W 117°36'917.8
2019-Jul-15 04:30N 32°14' W 117°30'917.3
2019-Jul-15 04:01N 32°08' W 117°22'917.1
2019-Jul-15 03:30N 32°03' W 117°14'917.3
2019-Jul-15 03:00N 31°59' W 117°05'917.3
2019-Jul-15 02:29N 31°56' W 116°55'8 0.6
2019-Jul-14 12:56N 31°50' W 116°48'4 7.8
2019-Jul-14 12:29N 31°50' W 116°52'4 8.8
2019-Jul-14 12:00N 31°50' W 116°57'4 8.5
2019-Jul-14 11:30N 31°50' W 117°02'4 8.5
2019-Jul-14 11:00N 31°49' W 117°07'4 7.9
2019-Jul-14 10:30N 31°49' W 117°12'5 7.7
2019-Jul-14 09:50N 31°48' W 117°18'3 7.5
2019-Jul-14 09:30N 31°48' W 117°20'4 7.4
2019-Jul-14 09:00N 31°48' W 117°25'4 7.6
2019-Jul-14 08:30N 31°47' W 117°29'3 6.6
2019-Jul-14 08:00N 31°45' W 117°32'4 7.7
2019-Jul-14 07:30N 31°42' W 117°30'4 7.8
2019-Jul-14 07:00N 31°38' W 117°29'4 7.9
2019-Jul-14 06:30N 31°35' W 117°27'31 8.9
2019-Jul-14 03:00N 31°06' W 117°12'345.5 270 / 101018.310.8 18.014.819.0
2019-Jul-14 02:55N 31°09' W 117°14'3 6.3
2019-Jul-14 02:30N 31°09' W 117°17'4 7.1
2019-Jul-14 01:56N 31°10' W 117°21'3 7.5
2019-Jul-14 01:30N 31°12' W 117°25'4 7.4
2019-Jul-14 01:00N 31°13' W 117°29'4 7.6
2019-Jul-14 00:30N 31°15' W 117°33'4 7.4
2019-Jul-13 23:58N 31°16' W 117°37'7 7.4
2019-Jul-13 23:03N 31°19' W 117°44'0 7.5
2019-Jul-13 23:00N 31°19' W 117°45'4 7.5
2019-Jul-13 22:30N 31°21' W 117°49'4 7.9
2019-Jul-13 22:00N 31°22' W 117°53'4 8.0
2019-Jul-13 21:30N 31°24' W 117°57'4 8.0
2019-Jul-13 21:00N 31°25' W 118°02'4 7.8
2019-Jul-13 20:30N 31°27' W 118°06'4 7.7
2019-Jul-13 20:00N 31°28' W 118°10'4 7.6
2019-Jul-13 19:30N 31°30' W 118°14'4 7.9
2019-Jul-13 19:00N 31°33' W 118°17'4 7.9
2019-Jul-13 18:30N 31°36' W 118°16'4 8.0
2019-Jul-13 18:00N 31°40' W 118°14'4 7.9
2019-Jul-13 17:30N 31°44' W 118°12'4 8.2
2019-Jul-13 17:00N 31°48' W 118°10'4 8.7
2019-Jul-13 16:30N 31°52' W 118°09'4 8.5
2019-Jul-13 16:00N 31°56' W 118°09'2 4.6
2019-Jul-13 15:30N 31°58' W 118°07'3 6.7
2019-Jul-13 15:00N 32°00' W 118°05'4 7.7
2019-Jul-13 14:30N 32°04' W 118°03'4 7.4
2019-Jul-13 14:00N 32°07' W 118°01'4 7.4
2019-Jul-13 13:30N 32°11' W 117°60'4 7.4
2019-Jul-13 13:00N 32°14' W 117°58'4 7.5
2019-Jul-13 12:30N 32°18' W 117°56'4 7.3
2019-Jul-13 12:00N 32°21' W 117°55'4 7.2
2019-Jul-13 11:30N 32°24' W 117°53'4 7.2
2019-Jul-13 11:00N 32°28' W 117°51'4 7.6
2019-Jul-13 10:30N 32°31' W 117°49'4 7.4
2019-Jul-13 10:00N 32°35' W 117°48'4 7.2
2019-Jul-13 09:30N 32°38' W 117°48'4 8.0
2019-Jul-13 09:00N 32°42' W 117°49'4 7.4
2019-Jul-13 08:30N 32°46' W 117°51'4 7.3
2019-Jul-13 08:00N 32°49' W 117°52'4 7.2
2019-Jul-13 07:30N 32°52' W 117°54'4 7.6
2019-Jul-13 07:00N 32°56' W 117°55'4 7.6
2019-Jul-13 06:30N 32°59' W 117°57'4 7.8
2019-Jul-13 06:00N 33°03' W 117°59'5315.8
2019-Jul-13 06:00N 33°00' W 117°54'918.4 270 / 101018.310.8 18.014.819.0
2019-Jul-13 05:30N 33°07' W 118°00'5 9.2
2019-Jul-13 05:00N 33°11' W 118°02'5 9.5
2019-Jul-13 04:30N 33°16' W 118°04'5 9.7
2019-Jul-13 04:00N 33°20' W 118°06'5 9.5
2019-Jul-13 03:30N 33°25' W 118°08'510.3
2019-Jul-13 03:00N 33°30' W 118°11'510.6
2019-Jul-13 02:30N 33°35' W 118°13'510.0
2019-Jul-13 02:00N 33°40' W 118°12'5 9.4
2019-Jul-13 01:31N 33°44' W 118°11'1 2.0
2019-Jul-13 01:00N 33°45' W 118°11'0 0.0
2019-Jul-13 00:30N 33°45' W 118°11'0 0.0
2019-Jul-13 00:00N 33°45' W 118°11'0 0.0
2019-Jul-12 23:24N 33°45' W 118°11'0 0.0
2019-Jul-12 23:00N 33°45' W 118°11'0 0.0
2019-Jul-12 22:30N 33°45' W 118°11'0 0.0
2019-Jul-12 22:00N 33°45' W 118°11'0 0.0
2019-Jul-12 21:30N 33°45' W 118°11'0 0.0
2019-Jul-12 21:00N 33°45' W 118°11'0 0.0
2019-Jul-12 20:30N 33°45' W 118°11'0 0.0
2019-Jul-12 20:00N 33°45' W 118°11'0 0.0
2019-Jul-12 19:30N 33°45' W 118°11'0 0.0
2019-Jul-12 18:54N 33°45' W 118°11'0 0.0
2019-Jul-12 18:30N 33°45' W 118°11'0 0.0
2019-Jul-12 18:00N 33°45' W 118°11'0 0.0
2019-Jul-12 17:30N 33°45' W 118°11'0 0.0
2019-Jul-12 17:00N 33°45' W 118°11'0 0.0
2019-Jul-12 16:30N 33°45' W 118°11'0 0.0
2019-Jul-12 16:00N 33°45' W 118°11'0 0.0
2019-Jul-12 15:30N 33°45' W 118°11'0 0.0
2019-Jul-12 15:00N 33°45' W 118°11'0 0.0
2019-Jul-12 14:30N 33°45' W 118°11'0 0.0
2019-Jul-12 14:00N 33°45' W 118°11'0 0.0
2019-Jul-12 13:30N 33°45' W 118°11'0 0.0
2019-Jul-12 13:00N 33°45' W 118°11'0 0.6
2019-Jul-12 12:30N 33°45' W 118°11'1 2.8
2019-Jul-12 12:00N 33°43' W 118°11'5 9.3
2019-Jul-12 11:30N 33°39' W 118°10'4 7.6
2019-Jul-12 11:00N 33°35' W 118°09'4 7.9
2019-Jul-12 10:30N 33°31' W 118°08'4 8.0
2019-Jul-12 09:59N 33°27' W 118°06'4 8.2
2019-Jul-12 09:30N 33°24' W 118°05'4 8.2
2019-Jul-12 09:00N 33°20' W 118°03'4 7.8
2019-Jul-12 08:30N 33°16' W 118°02'4 7.7
2019-Jul-12 08:00N 33°13' W 117°60'4 8.1
2019-Jul-12 07:30N 33°09' W 117°58'4 8.2
2019-Jul-12 07:00N 33°05' W 117°57'4 8.1
2019-Jul-12 06:30N 33°01' W 117°55'4 7.8
2019-Jul-12 06:00N 32°57' W 117°54'4 7.8
2019-Jul-12 05:30N 32°54' W 117°52'4 8.0
2019-Jul-12 05:00N 32°50' W 117°50'4 8.0
2019-Jul-12 04:30N 32°46' W 117°49'4 8.1
2019-Jul-12 04:00N 32°42' W 117°47'4 8.0
2019-Jul-12 03:30N 32°39' W 117°46'4 8.5
2019-Jul-12 03:00N 32°34' W 117°44'2303.4
2019-Jul-12 03:00N 32°36' W 117°42'611.6 330 / 201018.310.8 16.014.415.0
2019-Jul-12 02:30N 32°30' W 117°42'9 8.5
2019-Jul-12 01:30N 32°22' W 117°39'4 8.9
2019-Jul-12 01:00N 32°18' W 117°37'5 9.1
2019-Jul-12 00:30N 32°15' W 117°33'5 9.1
2019-Jul-12 00:00N 32°12' W 117°30'4 8.9
2019-Jul-11 23:30N 32°08' W 117°26'4 8.8
2019-Jul-11 23:00N 32°05' W 117°23'4 8.3
2019-Jul-11 22:30N 32°02' W 117°19'4 8.2
2019-Jul-11 21:59N 31°59' W 117°16'5 7.2
2019-Jul-11 21:15N 31°54' W 117°13'2 7.6
2019-Jul-11 21:00N 31°52' W 117°13'4 7.7
2019-Jul-11 20:30N 31°51' W 117°18'4 8.3
2019-Jul-11 20:00N 31°51' W 117°23'4 8.3
2019-Jul-11 19:30N 31°50' W 117°27'4 8.4
2019-Jul-11 19:00N 31°49' W 117°32'4 8.4
2019-Jul-11 18:30N 31°47' W 117°37'4 7.7
2019-Jul-11 18:00N 31°48' W 117°41'4 8.6
2019-Jul-11 17:30N 31°48' W 117°46'4 8.6
2019-Jul-11 17:00N 31°48' W 117°51'4 8.6
2019-Jul-11 16:30N 31°47' W 117°56'4 8.5
2019-Jul-11 16:00N 31°47' W 118°01'5310.6
2019-Jul-11 16:00N 31°42' W 118°00'612.6 330 / 151018.310.8 18.014.819.0
2019-Jul-11 15:30N 31°45' W 118°06'4 8.0
2019-Jul-11 15:00N 31°41' W 118°06'4 8.4
2019-Jul-11 14:30N 31°38' W 118°03'4 8.3
2019-Jul-11 14:00N 31°35' W 118°00'4 8.3
2019-Jul-11 13:30N 31°31' W 117°57'4 8.3
2019-Jul-11 13:00N 31°28' W 117°55'4 8.3
2019-Jul-11 12:30N 31°24' W 117°52'4 7.8
2019-Jul-11 12:00N 31°23' W 117°48'4 7.9
2019-Jul-11 11:30N 31°26' W 117°45'4 8.4
2019-Jul-11 11:00N 31°29' W 117°47'4 8.7
2019-Jul-11 10:30N 31°33' W 117°50'4 8.4
2019-Jul-11 10:00N 31°36' W 117°53'4 8.4
2019-Jul-11 09:30N 31°40' W 117°55'4 7.8
2019-Jul-11 09:00N 31°44' W 117°55'4 8.3
2019-Jul-11 08:30N 31°45' W 117°50'4 8.7
2019-Jul-11 08:00N 31°45' W 117°45'4 8.7
2019-Jul-11 07:30N 31°46' W 117°40'4 8.9
2019-Jul-11 07:00N 31°46' W 117°35'4 8.8
2019-Jul-11 06:30N 31°47' W 117°30'7 8.7
2019-Jul-11 05:44N 31°47' W 117°22'2 9.0
2019-Jul-11 05:30N 31°48' W 117°20'6 9.2
2019-Jul-11 04:52N 31°48' W 117°13'4 9.0
2019-Jul-11 04:22N 31°49' W 117°08'3 8.9
2019-Jul-11 04:00N 31°49' W 117°04'3212.4
2019-Jul-11 04:00N 31°48' W 117°00'5 5.5 330 / 151018.310.8 18.014.819.0
2019-Jul-11 03:08N 31°50' W 116°55'3 9.0
2019-Jul-11 02:50N 31°50' W 116°52'14 0.9
2019-Jul-10 11:10N 31°59' W 117°05'1 8.9
2019-Jul-10 11:00N 31°60' W 117°06'5 9.0
2019-Jul-10 10:30N 32°01' W 117°11'5 9.0
2019-Jul-10 10:00N 32°03' W 117°16'4 8.9
2019-Jul-10 09:31N 32°05' W 117°21'5 9.0
2019-Jul-10 09:01N 32°06' W 117°26'5 9.2
2019-Jul-10 08:30N 32°08' W 117°31'4 8.7
2019-Jul-10 08:00N 32°11' W 117°34'5 9.0
2019-Jul-10 07:30N 32°15' W 117°37'5 9.2
2019-Jul-10 07:00N 32°19' W 117°39'5 9.1
2019-Jul-10 06:30N 32°24' W 117°42'5 9.1
2019-Jul-10 06:00N 32°28' W 117°44'5 9.1
2019-Jul-10 05:30N 32°32' W 117°47'5 9.8
2019-Jul-10 05:00N 32°36' W 117°49'5 9.8
2019-Jul-10 04:30N 32°40' W 117°52'5 9.8
2019-Jul-10 04:00N 32°45' W 117°54'6418.0
2019-Jul-10 04:00N 32°42' W 117°48'1021.6 270 / 101018.310.8 18.014.819.0
2019-Jul-10 03:31N 32°49' W 117°57'5 9.9
2019-Jul-10 03:00N 32°54' W 117°60'5 9.8
2019-Jul-10 02:30N 32°58' W 118°02'5 9.6
2019-Jul-10 02:00N 33°02' W 118°05'5 9.5
2019-Jul-10 01:30N 33°07' W 118°07'5 9.8
2019-Jul-10 01:00N 33°11' W 118°10'  
Track history (hours):
 
Tides and Currents Weather Stations Pressure Air Temp Water Temp Dewpoint Dewpoint Depression Visibility Wind Speed Wind Dir Waves Ship Positions

Inspiration

Operator: Carnival Cruise Lines

Last reported at 2019-Jul-20 00:58 UTC. Time now 2019-Jul-20 01:04 UTC.
Position N 33°45' W 118°11'.

Type: Ship. MMSI: 309484000.

Date/timePositionNaut miles runAvg speedWind from/ knotsBaromVisibWave heightAir tempDewpointWater temp
2019-Jul-20 00:58N 33°45' W 118°11'0 0.0
2019-Jul-20 00:28N 33°45' W 118°11'0 0.0
2019-Jul-19 23:58N 33°45' W 118°11'0 0.0
2019-Jul-19 23:28N 33°45' W 118°11'0 0.0
2019-Jul-19 22:58N 33°45' W 118°11'0 0.0
2019-Jul-19 22:28N 33°45' W 118°11'0 0.0
2019-Jul-19 21:58N 33°45' W 118°11'0 0.0
2019-Jul-19 21:28N 33°45' W 118°11'0 0.0
2019-Jul-19 20:58N 33°45' W 118°11'0 0.0
2019-Jul-19 20:25N 33°45' W 118°11'0 0.0
2019-Jul-19 19:58N 33°45' W 118°11'0 0.0
2019-Jul-19 19:28N 33°45' W 118°11'0 0.0
2019-Jul-19 18:52N 33°45' W 118°11'0 0.0
2019-Jul-19 18:28N 33°45' W 118°11'0 0.0
2019-Jul-19 17:52N 33°45' W 118°11'0 0.0
2019-Jul-19 17:22N 33°45' W 118°11'0 0.0
2019-Jul-19 16:55N 33°45' W 118°11'0 0.0
2019-Jul-19 16:28N 33°45' W 118°11'0 0.0
2019-Jul-19 15:58N 33°45' W 118°11'0 0.0
2019-Jul-19 15:22N 33°45' W 118°11'0 0.0
2019-Jul-19 14:58N 33°45' W 118°11'0 0.0
2019-Jul-19 14:28N 33°45' W 118°11'0 0.0
2019-Jul-19 13:58N 33°45' W 118°11'0 0.0
2019-Jul-19 13:28N 33°45' W 118°11'0 0.0
2019-Jul-19 13:01N 33°45' W 118°11'0 0.5
2019-Jul-19 12:31N 33°45' W 118°11'1 3.0
2019-Jul-19 12:01N 33°43' W 118°11'5 9.2
2019-Jul-19 11:30N 33°39' W 118°10'3 6.8
2019-Jul-19 11:01N 33°35' W 118°10'4 7.4
2019-Jul-19 10:30N 33°32' W 118°08'4 7.2
2019-Jul-19 10:00N 33°29' W 118°07'3 7.1
2019-Jul-19 09:31N 33°25' W 118°05'4 7.1
2019-Jul-19 09:00N 33°22' W 118°04'4 7.8
2019-Jul-19 08:30N 33°18' W 118°02'4 7.9
2019-Jul-19 08:00N 33°14' W 118°01'4 7.2
2019-Jul-19 07:31N 33°11' W 117°59'4 7.6
2019-Jul-19 07:00N 33°07' W 117°58'4 7.7
2019-Jul-19 06:31N 33°04' W 117°56'3 6.8
2019-Jul-19 06:01N 33°01' W 117°55'9529.2
2019-Jul-19 06:00N 32°54' W 117°48'611.7 270 / 71017.2 18.014.819.0
2019-Jul-19 05:30N 32°58' W 117°53'3 6.7
2019-Jul-19 05:01N 32°55' W 117°52'4 8.2
2019-Jul-19 04:30N 32°51' W 117°51'5 9.1
2019-Jul-19 04:01N 32°46' W 117°50'4 8.9
2019-Jul-19 03:31N 32°42' W 117°47'4 8.7
2019-Jul-19 03:00N 32°38' W 117°45'4 8.8
2019-Jul-19 02:30N 32°34' W 117°43'4 8.7
2019-Jul-19 02:01N 32°30' W 117°42'4 8.5
2019-Jul-19 01:31N 32°26' W 117°40'4 8.5
2019-Jul-19 01:00N 32°22' W 117°39'4 8.5
2019-Jul-19 00:30N 32°18' W 117°37'4 8.3
2019-Jul-19 00:01N 32°15' W 117°33'4 8.2
2019-Jul-18 23:30N 32°12' W 117°30'4 8.4
2019-Jul-18 23:01N 32°09' W 117°27'4 8.8
2019-Jul-18 22:31N 32°05' W 117°23'4 8.8
2019-Jul-18 22:01N 32°02' W 117°20'3156.7
2019-Jul-18 22:00N 32°00' W 117°18'2 3.6 300 / 151018.210.8 19.015.919.0
2019-Jul-18 21:30N 31°59' W 117°16'6 7.7
2019-Jul-18 20:44N 31°54' W 117°12'4 7.6
2019-Jul-18 20:11N 31°51' W 117°16'2 8.9
2019-Jul-18 20:00N 31°51' W 117°18'4 8.6
2019-Jul-18 19:29N 31°51' W 117°23'4 8.5
2019-Jul-18 19:00N 31°50' W 117°28'5 8.5
2019-Jul-18 18:25N 31°49' W 117°34'3 8.5
2019-Jul-18 18:00N 31°49' W 117°38'2137.4
2019-Jul-18 18:00N 31°48' W 117°36'612.2 310 / 151018.310.8 18.014.819.0
2019-Jul-18 17:31N 31°49' W 117°43'4 8.6
2019-Jul-18 17:01N 31°48' W 117°48'4 8.6
2019-Jul-18 16:31N 31°48' W 117°53'4 8.4
2019-Jul-18 16:00N 31°47' W 117°58'4 8.6
2019-Jul-18 15:31N 31°47' W 118°03'4 8.0
2019-Jul-18 15:01N 31°44' W 118°07'4 8.4
2019-Jul-18 14:31N 31°40' W 118°05'4 8.6
2019-Jul-18 14:00N 31°37' W 118°02'4 8.6
2019-Jul-18 13:31N 31°33' W 117°59'4 8.3
2019-Jul-18 13:01N 31°30' W 117°56'4 8.4
2019-Jul-18 12:30N 31°26' W 117°54'4 8.1
2019-Jul-18 12:00N 31°23' W 117°50'4 7.9
2019-Jul-18 11:29N 31°24' W 117°46'4 7.8
2019-Jul-18 11:01N 31°27' W 117°45'4 8.6
2019-Jul-18 10:30N 31°31' W 117°48'4 8.7
2019-Jul-18 10:01N 31°34' W 117°51'5300.4
2019-Jul-18 10:00N 31°30' W 117°48'919.2 320 / 101018.210.8 16.012.718.0
2019-Jul-18 09:30N 31°38' W 117°54'4 8.4
2019-Jul-18 09:01N 31°42' W 117°56'4 8.2
2019-Jul-18 08:31N 31°45' W 117°53'5 9.0
2019-Jul-18 08:01N 31°45' W 117°48'5 8.9
2019-Jul-18 07:29N 31°46' W 117°42'11 8.9
2019-Jul-18 06:17N 31°47' W 117°30'4 9.0
2019-Jul-18 05:50N 31°47' W 117°25'3 8.9
2019-Jul-18 05:30N 31°47' W 117°21'6 8.6
2019-Jul-18 04:48N 31°48' W 117°14'2 2.5
2019-Jul-18 04:00N 31°48' W 117°12'17 1.1 270 / 101017.2 18.014.819.0
2019-Jul-17 12:13N 31°55' W 116°54'2 8.1
2019-Jul-17 12:00N 31°56' W 116°56'4 8.3
2019-Jul-17 11:30N 31°57' W 117°00'4 8.6
2019-Jul-17 11:00N 31°59' W 117°05'5 8.4
2019-Jul-17 10:28N 32°01' W 117°10'4 8.4
2019-Jul-17 10:00N 32°02' W 117°14'5 9.0
2019-Jul-17 09:30N 32°04' W 117°19'5 9.1
2019-Jul-17 09:00N 32°06' W 117°24'4 9.0
2019-Jul-17 08:30N 32°07' W 117°29'4 9.0
2019-Jul-17 08:00N 32°10' W 117°33'5378.3
2019-Jul-17 08:00N 32°06' W 117°30'918.7 280 / 51018.210.8 16.012.719.0
2019-Jul-17 07:30N 32°14' W 117°36'5 8.8
2019-Jul-17 06:56N 32°18' W 117°38'4 9.4
2019-Jul-17 06:30N 32°22' W 117°40'5 9.4
2019-Jul-17 06:00N 32°26' W 117°43'5 9.7
2019-Jul-17 05:30N 32°30' W 117°46'5 9.6
2019-Jul-17 05:00N 32°35' W 117°48'5 9.7
2019-Jul-17 04:30N 32°39' W 117°51'5 9.9
2019-Jul-17 04:00N 32°43' W 117°53'5 9.7
2019-Jul-17 03:30N 32°48' W 117°56'5 9.5
2019-Jul-17 03:00N 32°52' W 117°58'5 9.3
2019-Jul-17 02:30N 32°56' W 118°01'5 9.6
2019-Jul-17 02:00N 33°00' W 118°03'5 9.4
2019-Jul-17 01:30N 33°05' W 118°06'5 9.6
2019-Jul-17 01:01N 33°09' W 118°09'5 9.8
2019-Jul-17 00:30N 33°13' W 118°11'510.3
2019-Jul-17 00:00N 33°18' W 118°14'5 9.3
2019-Jul-16 23:30N 33°21' W 118°19'0 0.4
2019-Jul-16 22:49N 33°21' W 118°19'0 0.0
2019-Jul-16 22:22N 33°21' W 118°19'0 0.0
2019-Jul-16 21:37N 33°21' W 118°19'0 0.0
2019-Jul-16 21:19N 33°21' W 118°19'0 0.0
2019-Jul-16 20:55N 33°21' W 118°19'0 0.0
2019-Jul-16 20:16N 33°21' W 118°19'0 0.0
2019-Jul-16 19:52N 33°21' W 118°19'0 0.1
2019-Jul-16 19:25N 33°21' W 118°19'0 0.0
2019-Jul-16 18:55N 33°21' W 118°19'0 0.0
2019-Jul-16 18:22N 33°21' W 118°19'0 0.0
2019-Jul-16 17:52N 33°21' W 118°19'0 0.0
2019-Jul-16 17:25N 33°21' W 118°19'0 0.0
2019-Jul-16 16:52N 33°21' W 118°19'0 0.0
2019-Jul-16 16:28N 33°21' W 118°19'0 0.0
2019-Jul-16 15:49N 33°21' W 118°19'0 0.0
2019-Jul-16 15:07N 33°21' W 118°19'0 0.0
2019-Jul-16 14:55N 33°21' W 118°19'0 0.0
2019-Jul-16 14:25N 33°21' W 118°19'0 0.1
2019-Jul-16 14:00N 33°21' W 118°19'3 6.2
2019-Jul-16 13:28N 33°18' W 118°16'4 8.3
2019-Jul-16 13:01N 33°15' W 118°15'4 8.2
2019-Jul-16 12:30N 33°11' W 118°14'4 7.9
2019-Jul-16 12:00N 33°07' W 118°13'4 7.7
2019-Jul-16 11:30N 33°03' W 118°11'4 8.2
2019-Jul-16 11:00N 33°01' W 118°07'4 8.8
2019-Jul-16 10:30N 32°57' W 118°04'4 8.8
2019-Jul-16 10:00N 32°53' W 118°03'4 8.9
2019-Jul-16 09:30N 32°49' W 118°01'4 8.4
2019-Jul-16 09:00N 32°45' W 117°59'4 8.0
2019-Jul-16 08:30N 32°45' W 117°54'4 7.5
2019-Jul-16 08:00N 32°48' W 117°52'4 8.5
2019-Jul-16 07:30N 32°52' W 117°54'4 8.5
2019-Jul-16 07:00N 32°56' W 117°55'4 8.7
2019-Jul-16 06:31N 33°00' W 117°57'5 9.0
2019-Jul-16 06:00N 33°04' W 117°59'4 8.9
2019-Jul-16 05:30N 33°09' W 118°01'5 9.2
2019-Jul-16 05:00N 33°13' W 118°03'5 9.7
2019-Jul-16 04:30N 33°17' W 118°05'5 9.7
2019-Jul-16 04:00N 33°22' W 118°07'12711.1
2019-Jul-16 04:00N 33°12' W 118°00'1633.7 180 / 81018.3 5.4 18.014.819.0
2019-Jul-16 03:30N 33°26' W 118°09'5 9.5
2019-Jul-16 03:01N 33°31' W 118°11'5 9.7
2019-Jul-16 02:30N 33°35' W 118°13'5 9.5
2019-Jul-16 02:01N 33°40' W 118°12'4 8.7
2019-Jul-16 01:31N 33°44' W 118°11'1 1.5
2019-Jul-16 00:58N 33°45' W 118°11'0 0.0
2019-Jul-16 00:28N 33°45' W 118°11'0 0.0
2019-Jul-15 23:58N 33°45' W 118°11'0 0.0
2019-Jul-15 23:28N 33°45' W 118°11'0 0.0
2019-Jul-15 22:58N 33°45' W 118°11'0 0.0
2019-Jul-15 22:22N 33°45' W 118°11'0 0.0
2019-Jul-15 21:58N 33°45' W 118°11'0 0.0
2019-Jul-15 21:28N 33°45' W 118°11'0 0.0
2019-Jul-15 20:58N 33°45' W 118°11'0 0.0
2019-Jul-15 20:28N 33°45' W 118°11'0 0.0
2019-Jul-15 19:58N 33°45' W 118°11'0 0.0
2019-Jul-15 19:28N 33°45' W 118°11'0 0.0
2019-Jul-15 18:58N 33°45' W 118°11'0 0.0
2019-Jul-15 18:28N 33°45' W 118°11'0 0.0
2019-Jul-15 17:58N 33°45' W 118°11'0 0.0
2019-Jul-15 17:25N 33°45' W 118°11'0 0.0
2019-Jul-15 16:58N 33°45' W 118°11'0 0.0
2019-Jul-15 16:25N 33°45' W 118°11'0 0.0
2019-Jul-15 15:55N 33°45' W 118°11'0 0.0
2019-Jul-15 15:28N 33°45' W 118°11'0 0.0
2019-Jul-15 14:58N 33°45' W 118°11'0 0.0
2019-Jul-15 14:28N 33°45' W 118°11'0 0.0
2019-Jul-15 13:55N 33°45' W 118°11'0 0.0
2019-Jul-15 13:28N 33°45' W 118°11'0 0.0
2019-Jul-15 13:00N 33°45' W 118°11'0 0.4
2019-Jul-15 12:31N 33°45' W 118°11'1 2.2
2019-Jul-15 12:01N 33°44' W 118°11'5 9.7
2019-Jul-15 11:30N 33°39' W 118°10'5 9.7
2019-Jul-15 11:00N 33°34' W 118°09'510.0
2019-Jul-15 10:31N 33°30' W 118°07'610.7
2019-Jul-15 10:00N 33°24' W 118°05'510.8
2019-Jul-15 09:30N 33°19' W 118°03'5 9.6
2019-Jul-15 09:00N 33°15' W 118°01'510.9
2019-Jul-15 08:30N 33°10' W 117°59'510.9
2019-Jul-15 08:01N 33°05' W 117°57'510.8
2019-Jul-15 07:30N 32°60' W 117°54'612.4
2019-Jul-15 07:00N 32°54' W 117°52'816.5
2019-Jul-15 06:30N 32°46' W 117°49'918.1
2019-Jul-15 06:00N 32°37' W 117°45'918.1
2019-Jul-15 05:30N 32°29' W 117°40'917.9
2019-Jul-15 05:00N 32°21' W 117°36'917.8
2019-Jul-15 04:30N 32°14' W 117°30'917.3
2019-Jul-15 04:01N 32°08' W 117°22'917.1
2019-Jul-15 03:30N 32°03' W 117°14'917.3
2019-Jul-15 03:00N 31°59' W 117°05'917.3
2019-Jul-15 02:29N 31°56' W 116°55'8 0.6
2019-Jul-14 12:56N 31°50' W 116°48'4 7.8
2019-Jul-14 12:29N 31°50' W 116°52'4 8.8
2019-Jul-14 12:00N 31°50' W 116°57'4 8.5
2019-Jul-14 11:30N 31°50' W 117°02'4 8.5
2019-Jul-14 11:00N 31°49' W 117°07'4 7.9
2019-Jul-14 10:30N 31°49' W 117°12'5 7.7
2019-Jul-14 09:50N 31°48' W 117°18'3 7.5
2019-Jul-14 09:30N 31°48' W 117°20'4 7.4
2019-Jul-14 09:00N 31°48' W 117°25'4 7.6
2019-Jul-14 08:30N 31°47' W 117°29'3 6.6
2019-Jul-14 08:00N 31°45' W 117°32'4 7.7
2019-Jul-14 07:30N 31°42' W 117°30'4 7.8
2019-Jul-14 07:00N 31°38' W 117°29'4 7.9
2019-Jul-14 06:30N 31°35' W 117°27'31 8.9
2019-Jul-14 03:00N 31°06' W 117°12'345.5 270 / 101018.310.8 18.014.819.0
2019-Jul-14 02:55N 31°09' W 117°14'3 6.3
2019-Jul-14 02:30N 31°09' W 117°17'4 7.1
2019-Jul-14 01:56N 31°10' W 117°21'3 7.5
2019-Jul-14 01:30N 31°12' W 117°25'4 7.4
2019-Jul-14 01:00N 31°13' W 117°29'4 7.6
2019-Jul-14 00:30N 31°15' W 117°33'4 7.4
2019-Jul-13 23:58N 31°16' W 117°37'7 7.4
2019-Jul-13 23:03N 31°19' W 117°44'0 7.5
2019-Jul-13 23:00N 31°19' W 117°45'4 7.5
2019-Jul-13 22:30N 31°21' W 117°49'4 7.9
2019-Jul-13 22:00N 31°22' W 117°53'4 8.0
2019-Jul-13 21:30N 31°24' W 117°57'4 8.0
2019-Jul-13 21:00N 31°25' W 118°02'4 7.8
2019-Jul-13 20:30N 31°27' W 118°06'4 7.7
2019-Jul-13 20:00N 31°28' W 118°10'4 7.6
2019-Jul-13 19:30N 31°30' W 118°14'4 7.9
2019-Jul-13 19:00N 31°33' W 118°17'4 7.9
2019-Jul-13 18:30N 31°36' W 118°16'4 8.0
2019-Jul-13 18:00N 31°40' W 118°14'4 7.9
2019-Jul-13 17:30N 31°44' W 118°12'4 8.2
2019-Jul-13 17:00N 31°48' W 118°10'4 8.7
2019-Jul-13 16:30N 31°52' W 118°09'4 8.5
2019-Jul-13 16:00N 31°56' W 118°09'2 4.6
2019-Jul-13 15:30N 31°58' W 118°07'3 6.7
2019-Jul-13 15:00N 32°00' W 118°05'4 7.7
2019-Jul-13 14:30N 32°04' W 118°03'4 7.4
2019-Jul-13 14:00N 32°07' W 118°01'4 7.4
2019-Jul-13 13:30N 32°11' W 117°60'4 7.4
2019-Jul-13 13:00N 32°14' W 117°58'4 7.5
2019-Jul-13 12:30N 32°18' W 117°56'4 7.3
2019-Jul-13 12:00N 32°21' W 117°55'4 7.2
2019-Jul-13 11:30N 32°24' W 117°53'4 7.2
2019-Jul-13 11:00N 32°28' W 117°51'4 7.6
2019-Jul-13 10:30N 32°31' W 117°49'4 7.4
2019-Jul-13 10:00N 32°35' W 117°48'4 7.2
2019-Jul-13 09:30N 32°38' W 117°48'4 8.0
2019-Jul-13 09:00N 32°42' W 117°49'4 7.4
2019-Jul-13 08:30N 32°46' W 117°51'4 7.3
2019-Jul-13 08:00N 32°49' W 117°52'4 7.2
2019-Jul-13 07:30N 32°52' W 117°54'4 7.6
2019-Jul-13 07:00N 32°56' W 117°55'4 7.6
2019-Jul-13 06:30N 32°59' W 117°57'4 7.8
2019-Jul-13 06:00N 33°03' W 117°59'5315.8
2019-Jul-13 06:00N 33°00' W 117°54'918.4 270 / 101018.310.8 18.014.819.0
2019-Jul-13 05:30N 33°07' W 118°00'5 9.2
2019-Jul-13 05:00N 33°11' W 118°02'5 9.5
2019-Jul-13 04:30N 33°16' W 118°04'5 9.7
2019-Jul-13 04:00N 33°20' W 118°06'5 9.5
2019-Jul-13 03:30N 33°25' W 118°08'510.3
2019-Jul-13 03:00N 33°30' W 118°11'510.6
2019-Jul-13 02:30N 33°35' W 118°13'510.0
2019-Jul-13 02:00N 33°40' W 118°12'5 9.4
2019-Jul-13 01:31N 33°44' W 118°11'1 2.0
2019-Jul-13 01:00N 33°45' W 118°11'0 0.0
2019-Jul-13 00:30N 33°45' W 118°11'0 0.0
2019-Jul-13 00:00N 33°45' W 118°11'0 0.0
2019-Jul-12 23:24N 33°45' W 118°11'0 0.0
2019-Jul-12 23:00N 33°45' W 118°11'0 0.0
2019-Jul-12 22:30N 33°45' W 118°11'0 0.0
2019-Jul-12 22:00N 33°45' W 118°11'0 0.0
2019-Jul-12 21:30N 33°45' W 118°11'0 0.0
2019-Jul-12 21:00N 33°45' W 118°11'0 0.0
2019-Jul-12 20:30N 33°45' W 118°11'0 0.0
2019-Jul-12 20:00N 33°45' W 118°11'0 0.0
2019-Jul-12 19:30N 33°45' W 118°11'0 0.0
2019-Jul-12 18:54N 33°45' W 118°11'0 0.0
2019-Jul-12 18:30N 33°45' W 118°11'0 0.0
2019-Jul-12 18:00N 33°45' W 118°11'0 0.0
2019-Jul-12 17:30N 33°45' W 118°11'0 0.0
2019-Jul-12 17:00N 33°45' W 118°11'0 0.0
2019-Jul-12 16:30N 33°45' W 118°11'0 0.0
2019-Jul-12 16:00N 33°45' W 118°11'0 0.0
2019-Jul-12 15:30N 33°45' W 118°11'0 0.0
2019-Jul-12 15:00N 33°45' W 118°11'0 0.0
2019-Jul-12 14:30N 33°45' W 118°11'0 0.0
2019-Jul-12 14:00N 33°45' W 118°11'0 0.0
2019-Jul-12 13:30N 33°45' W 118°11'0 0.0
2019-Jul-12 13:00N 33°45' W 118°11'0 0.6
2019-Jul-12 12:30N 33°45' W 118°11'1 2.8
2019-Jul-12 12:00N 33°43' W 118°11'5 9.3
2019-Jul-12 11:30N 33°39' W 118°10'4 7.6
2019-Jul-12 11:00N 33°35' W 118°09'4 7.9
2019-Jul-12 10:30N 33°31' W 118°08'4 8.0
2019-Jul-12 09:59N 33°27' W 118°06'4 8.2
2019-Jul-12 09:30N 33°24' W 118°05'4 8.2
2019-Jul-12 09:00N 33°20' W 118°03'4 7.8
2019-Jul-12 08:30N 33°16' W 118°02'4 7.7
2019-Jul-12 08:00N 33°13' W 117°60'4 8.1
2019-Jul-12 07:30N 33°09' W 117°58'4 8.2
2019-Jul-12 07:00N 33°05' W 117°57'4 8.1
2019-Jul-12 06:30N 33°01' W 117°55'4 7.8
2019-Jul-12 06:00N 32°57' W 117°54'4 7.8
2019-Jul-12 05:30N 32°54' W 117°52'4 8.0
2019-Jul-12 05:00N 32°50' W 117°50'4 8.0
2019-Jul-12 04:30N 32°46' W 117°49'4 8.1
2019-Jul-12 04:00N 32°42' W 117°47'4 8.0
2019-Jul-12 03:30N 32°39' W 117°46'4 8.5
2019-Jul-12 03:00N 32°34' W 117°44'2303.4
2019-Jul-12 03:00N 32°36' W 117°42'611.6 330 / 201018.310.8 16.014.415.0
2019-Jul-12 02:30N 32°30' W 117°42'9 8.5
2019-Jul-12 01:30N 32°22' W 117°39'4 8.9
2019-Jul-12 01:00N 32°18' W 117°37'5 9.1
2019-Jul-12 00:30N 32°15' W 117°33'5 9.1
2019-Jul-12 00:00N 32°12' W 117°30'4 8.9
2019-Jul-11 23:30N 32°08' W 117°26'4 8.8
2019-Jul-11 23:00N 32°05' W 117°23'4 8.3
2019-Jul-11 22:30N 32°02' W 117°19'4 8.2
2019-Jul-11 21:59N 31°59' W 117°16'5 7.2
2019-Jul-11 21:15N 31°54' W 117°13'2 7.6
2019-Jul-11 21:00N 31°52' W 117°13'4 7.7
2019-Jul-11 20:30N 31°51' W 117°18'4 8.3
2019-Jul-11 20:00N 31°51' W 117°23'4 8.3
2019-Jul-11 19:30N 31°50' W 117°27'4 8.4
2019-Jul-11 19:00N 31°49' W 117°32'4 8.4
2019-Jul-11 18:30N 31°47' W 117°37'4 7.7
2019-Jul-11 18:00N 31°48' W 117°41'4 8.6
2019-Jul-11 17:30N 31°48' W 117°46'4 8.6
2019-Jul-11 17:00N 31°48' W 117°51'4 8.6
2019-Jul-11 16:30N 31°47' W 117°56'4 8.5
2019-Jul-11 16:00N 31°47' W 118°01'5310.6
2019-Jul-11 16:00N 31°42' W 118°00'612.6 330 / 151018.310.8 18.014.819.0
2019-Jul-11 15:30N 31°45' W 118°06'4 8.0
2019-Jul-11 15:00N 31°41' W 118°06'4 8.4
2019-Jul-11 14:30N 31°38' W 118°03'4 8.3
2019-Jul-11 14:00N 31°35' W 118°00'4 8.3
2019-Jul-11 13:30N 31°31' W 117°57'4 8.3
2019-Jul-11 13:00N 31°28' W 117°55'4 8.3
2019-Jul-11 12:30N 31°24' W 117°52'4 7.8
2019-Jul-11 12:00N 31°23' W 117°48'4 7.9
2019-Jul-11 11:30N 31°26' W 117°45'4 8.4
2019-Jul-11 11:00N 31°29' W 117°47'4 8.7
2019-Jul-11 10:30N 31°33' W 117°50'4 8.4
2019-Jul-11 10:00N 31°36' W 117°53'4 8.4
2019-Jul-11 09:30N 31°40' W 117°55'4 7.8
2019-Jul-11 09:00N 31°44' W 117°55'4 8.3
2019-Jul-11 08:30N 31°45' W 117°50'4 8.7
2019-Jul-11 08:00N 31°45' W 117°45'4 8.7
2019-Jul-11 07:30N 31°46' W 117°40'4 8.9
2019-Jul-11 07:00N 31°46' W 117°35'4 8.8
2019-Jul-11 06:30N 31°47' W 117°30'7 8.7
2019-Jul-11 05:44N 31°47' W 117°22'2 9.0
2019-Jul-11 05:30N 31°48' W 117°20'6 9.2
2019-Jul-11 04:52N 31°48' W 117°13'4 9.0
2019-Jul-11 04:22N 31°49' W 117°08'3 8.9
2019-Jul-11 04:00N 31°49' W 117°04'3212.4
2019-Jul-11 04:00N 31°48' W 117°00'5 5.5 330 / 151018.310.8 18.014.819.0
2019-Jul-11 03:08N 31°50' W 116°55'3 9.0
2019-Jul-11 02:50N 31°50' W 116°52'14 0.9
2019-Jul-10 11:10N 31°59' W 117°05'1 8.9
2019-Jul-10 11:00N 31°60' W 117°06'5 9.0
2019-Jul-10 10:30N 32°01' W 117°11'5 9.0
2019-Jul-10 10:00N 32°03' W 117°16'4 8.9
2019-Jul-10 09:31N 32°05' W 117°21'5 9.0
2019-Jul-10 09:01N 32°06' W 117°26'5 9.2
2019-Jul-10 08:30N 32°08' W 117°31'4 8.7
2019-Jul-10 08:00N 32°11' W 117°34'5 9.0
2019-Jul-10 07:30N 32°15' W 117°37'5 9.2
2019-Jul-10 07:00N 32°19' W 117°39'5 9.1
2019-Jul-10 06:30N 32°24' W 117°42'5 9.1
2019-Jul-10 06:00N 32°28' W 117°44'5 9.1
2019-Jul-10 05:30N 32°32' W 117°47'5 9.8
2019-Jul-10 05:00N 32°36' W 117°49'5 9.8
2019-Jul-10 04:30N 32°40' W 117°52'5 9.8
2019-Jul-10 04:00N 32°45' W 117°54'6418.0
2019-Jul-10 04:00N 32°42' W 117°48'1021.6 270 / 101018.310.8 18.014.819.0
2019-Jul-10 03:31N 32°49' W 117°57'5 9.9
2019-Jul-10 03:00N 32°54' W 117°60'5 9.8
2019-Jul-10 02:30N 32°58' W 118°02'5 9.6
2019-Jul-10 02:00N 33°02' W 118°05'5 9.5
2019-Jul-10 01:30N 33°07' W 118°07'5 9.8
2019-Jul-10 01:00N 33°11' W 118°10'  

Dump ship's entire track history